createdAt,value
2018-09-17T00:01:47.078Z,85.40
2018-09-17T00:04:17.936Z,85.10
2018-09-17T00:06:46.486Z,85.00
2018-09-17T00:09:15.064Z,85.20
2018-09-17T00:11:43.586Z,85.30
2018-09-17T00:14:12.103Z,85.70
2018-09-17T00:16:40.649Z,85.70
2018-09-17T00:19:09.209Z,85.60
2018-09-17T00:21:37.729Z,85.90
2018-09-17T00:24:06.328Z,86.20
2018-09-17T00:26:34.888Z,85.70
2018-09-17T00:29:03.452Z,85.30
2018-09-17T00:31:31.961Z,85.20
2018-09-17T00:34:00.486Z,85.00
2018-09-17T00:36:29.035Z,84.80
2018-09-17T00:38:57.540Z,84.60
2018-09-17T00:41:26.085Z,84.70
2018-09-17T00:43:54.589Z,84.50
2018-09-17T00:46:23.118Z,84.30
2018-09-17T00:48:51.630Z,83.80
2018-09-17T00:51:20.615Z,83.30
2018-09-17T00:53:49.162Z,83.40
2018-09-17T00:56:17.701Z,83.80
2018-09-17T00:58:46.284Z,83.40
2018-09-17T01:01:14.854Z,83.50
2018-09-17T01:03:43.414Z,83.60
2018-09-17T01:06:11.983Z,83.80
2018-09-17T01:08:40.531Z,83.60
2018-09-17T01:11:09.239Z,83.70
2018-09-17T01:13:37.780Z,83.60
2018-09-17T01:16:06.320Z,83.70
2018-09-17T01:18:34.862Z,84.00
2018-09-17T01:21:03.415Z,84.20
2018-09-17T01:23:31.949Z,84.40
2018-09-17T01:26:00.487Z,84.60
2018-09-17T01:28:29.043Z,84.70
2018-09-17T01:30:57.567Z,85.00
2018-09-17T01:33:26.099Z,85.20
2018-09-17T01:35:54.633Z,85.30
2018-09-17T01:38:23.219Z,85.60
2018-09-17T01:40:51.849Z,85.60
2018-09-17T01:43:22.311Z,84.80
2018-09-17T01:45:50.993Z,84.10
2018-09-17T01:48:19.558Z,84.10
2018-09-17T01:50:48.111Z,84.30
2018-09-17T01:53:16.659Z,84.60
2018-09-17T01:55:45.193Z,84.90
2018-09-17T01:58:13.724Z,85.20
2018-09-17T02:00:42.293Z,85.60
2018-09-17T02:03:10.841Z,86.00
2018-09-17T02:05:39.375Z,86.50
2018-09-17T02:08:08.089Z,87.00
2018-09-17T02:10:36.582Z,86.80
2018-09-17T02:13:05.105Z,86.60
2018-09-17T02:15:33.636Z,87.10
2018-09-17T02:18:02.191Z,87.60
2018-09-17T02:20:30.754Z,88.00
2018-09-17T02:22:59.299Z,88.30
2018-09-17T02:25:27.846Z,88.20
2018-09-17T02:27:56.653Z,88.50
2018-09-17T02:30:25.193Z,89.10
2018-09-17T02:32:53.766Z,89.30
2018-09-17T02:35:22.312Z,89.40
2018-09-17T02:37:50.849Z,89.70
2018-09-17T02:40:19.528Z,90.30
2018-09-17T02:42:49.875Z,90.60
2018-09-17T02:45:19.244Z,90.30
2018-09-17T02:47:47.901Z,90.40
2018-09-17T02:50:16.483Z,90.80
2018-09-17T02:52:45.005Z,90.60
2018-09-17T02:55:13.541Z,91.30
2018-09-17T02:57:43.161Z,90.60
2018-09-17T03:00:11.769Z,90.30
2018-09-17T03:02:40.360Z,90.80
2018-09-17T03:05:09.628Z,91.00
2018-09-17T03:07:38.175Z,91.20
2018-09-17T03:10:06.758Z,91.30
2018-09-17T03:12:35.336Z,91.80
2018-09-17T03:15:15.103Z,91.70
2018-09-17T03:17:43.624Z,91.50
2018-09-17T03:20:12.168Z,91.70
2018-09-17T03:22:40.738Z,92.10
2018-09-17T03:25:09.257Z,92.20
2018-09-17T03:27:37.797Z,92.40
2018-09-17T03:30:06.419Z,92.20
2018-09-17T03:32:34.988Z,92.10
2018-09-17T03:35:03.940Z,91.80
2018-09-17T03:37:32.465Z,92.20
2018-09-17T03:40:01.162Z,92.50
2018-09-17T03:42:30.101Z,93.00
2018-09-17T03:44:59.075Z,93.10
2018-09-17T03:47:27.968Z,93.30
2018-09-17T03:49:56.503Z,93.80
2018-09-17T03:52:25.358Z,93.70
2018-09-17T03:54:53.927Z,93.80
2018-09-17T03:57:22.533Z,94.30
2018-09-17T03:59:51.147Z,93.70
2018-09-17T04:02:19.675Z,93.80
2018-09-17T04:04:48.208Z,94.00
2018-09-17T04:07:16.759Z,94.40
2018-09-17T04:09:45.774Z,94.50
2018-09-17T04:12:15.320Z,94.50
2018-09-17T04:14:43.994Z,94.60
2018-09-17T04:17:12.549Z,94.70
2018-09-17T04:19:41.106Z,94.80
2018-09-17T04:22:10.376Z,95.10
2018-09-17T04:24:38.913Z,95.50
2018-09-17T04:27:07.436Z,95.60
2018-09-17T04:29:35.979Z,95.60
2018-09-17T04:32:04.537Z,95.50
2018-09-17T04:34:33.516Z,95.70
2018-09-17T04:37:02.476Z,95.60
2018-09-17T04:39:31.048Z,95.60
2018-09-17T04:41:59.668Z,95.70
2018-09-17T04:44:28.211Z,95.70
2018-09-17T04:46:56.807Z,96.00
2018-09-17T04:49:25.336Z,95.70
2018-09-17T04:51:53.855Z,95.70
2018-09-17T04:54:22.392Z,95.70
2018-09-17T04:56:50.915Z,96.10
2018-09-17T04:59:19.487Z,96.20
2018-09-17T05:01:48.056Z,96.30
2018-09-17T05:04:16.598Z,96.60
2018-09-17T05:06:45.534Z,96.60
2018-09-17T05:09:14.078Z,96.80
2018-09-17T05:11:42.962Z,96.90
2018-09-17T05:14:11.530Z,96.70
2018-09-17T05:16:40.107Z,96.90
2018-09-17T05:19:08.667Z,97.00
2018-09-17T05:21:37.249Z,97.30
2018-09-17T05:24:06.129Z,97.60
2018-09-17T05:26:34.675Z,98.00
2018-09-17T05:29:03.212Z,98.00
2018-09-17T05:31:31.774Z,98.00
2018-09-17T05:34:00.343Z,98.20
2018-09-17T05:36:28.938Z,98.40
2018-09-17T05:38:57.468Z,98.20
2018-09-17T05:41:26.029Z,98.20
2018-09-17T05:43:54.603Z,97.90
2018-09-17T05:46:23.139Z,98.00
2018-09-17T05:48:51.751Z,97.10
2018-09-17T05:51:20.296Z,96.20
2018-09-17T05:53:48.911Z,95.60
2018-09-17T05:56:17.424Z,95.10
2018-09-17T05:58:46.015Z,93.70
2018-09-17T06:01:14.545Z,92.40
2018-09-17T06:03:43.157Z,91.70
2018-09-17T06:06:11.685Z,92.10
2018-09-17T06:08:40.436Z,92.50
2018-09-17T06:11:09.259Z,92.70
2018-09-17T06:13:37.785Z,93.20
2018-09-17T06:16:06.378Z,93.40
2018-09-17T06:18:34.979Z,93.40
2018-09-17T06:21:03.975Z,93.70
2018-09-17T06:23:32.549Z,94.00
2018-09-17T06:26:01.098Z,94.30
2018-09-17T06:28:29.709Z,94.70
2018-09-17T06:30:58.229Z,94.80
2018-09-17T06:33:26.800Z,94.60
2018-09-17T06:35:55.329Z,94.20
2018-09-17T06:38:23.903Z,93.70
2018-09-17T06:40:52.524Z,93.10
2018-09-17T06:43:21.053Z,92.60
2018-09-17T06:45:49.696Z,91.90
2018-09-17T06:48:18.226Z,91.90
2018-09-17T06:50:46.772Z,90.70
2018-09-17T06:53:15.304Z,89.20
2018-09-17T06:55:43.830Z,87.80
2018-09-17T06:58:12.349Z,87.40
2018-09-17T07:00:40.874Z,87.60
2018-09-17T07:03:09.397Z,85.70
2018-09-17T07:05:37.959Z,84.80
2018-09-17T07:08:06.476Z,84.60
2018-09-17T07:10:35.034Z,83.60
2018-09-17T07:13:03.570Z,83.20
2018-09-17T07:15:32.133Z,83.80
2018-09-17T07:18:00.722Z,83.10
2018-09-17T07:20:29.304Z,82.60
2018-09-17T07:22:57.921Z,81.70
2018-09-17T07:25:26.468Z,80.90
2018-09-17T07:27:54.988Z,80.70
2018-09-17T07:30:23.497Z,81.10
2018-09-17T07:32:52.008Z,80.70
2018-09-17T07:35:20.543Z,80.40
2018-09-17T07:37:49.090Z,78.30
2018-09-17T07:40:17.680Z,77.20
2018-09-17T07:42:46.221Z,77.30
2018-09-17T07:45:14.723Z,75.80
2018-09-17T07:47:43.269Z,74.40
2018-09-17T07:50:11.805Z,72.90
2018-09-17T07:52:40.333Z,73.00
2018-09-17T07:55:08.897Z,72.40
2018-09-17T07:57:37.430Z,71.50
2018-09-17T08:00:06.053Z,70.90
2018-09-17T08:02:34.585Z,70.60
2018-09-17T08:05:03.127Z,71.30
2018-09-17T08:07:31.655Z,70.80
2018-09-17T08:10:00.302Z,70.20
2018-09-17T08:12:28.816Z,71.80
2018-09-17T08:14:57.391Z,70.70
2018-09-17T08:17:26.021Z,69.20
2018-09-17T08:19:54.662Z,68.70
2018-09-17T08:22:23.234Z,69.20
2018-09-17T08:24:51.817Z,69.40
2018-09-17T08:27:20.351Z,68.30
2018-09-17T08:29:48.902Z,67.00
2018-09-17T08:32:17.462Z,66.00
2018-09-17T08:34:46.066Z,67.70
2018-09-17T08:37:14.596Z,64.60
2018-09-17T08:39:43.154Z,65.60
2018-09-17T08:42:11.717Z,63.70
2018-09-17T08:44:40.272Z,60.10
2018-09-17T08:47:08.802Z,59.60
2018-09-17T08:49:37.409Z,59.80
2018-09-17T08:52:06.019Z,59.70
2018-09-17T08:54:40.491Z,58.30
2018-09-17T08:57:14.290Z,57.70
2018-09-17T08:59:50.877Z,57.80
2018-09-17T09:02:24.933Z,60.20
2018-09-17T09:04:54.828Z,58.60
2018-09-17T09:07:28.604Z,56.50
2018-09-17T09:10:02.481Z,56.30
2018-09-17T09:12:36.232Z,57.10
2018-09-17T09:15:10.120Z,56.80
2018-09-17T09:17:38.649Z,56.60
2018-09-17T09:20:07.234Z,57.00
2018-09-17T09:22:35.759Z,57.70
2018-09-17T09:25:04.613Z,58.60
2018-09-17T09:27:33.206Z,53.60
2018-09-17T09:30:01.781Z,54.70
2018-09-17T09:32:30.324Z,56.10
2018-09-17T09:34:58.854Z,52.90
2018-09-17T09:37:27.643Z,52.30
2018-09-17T09:39:56.173Z,52.50
2018-09-17T09:42:24.719Z,52.60
2018-09-17T09:44:53.323Z,52.60
2018-09-17T09:47:21.869Z,52.50
2018-09-17T09:49:50.404Z,51.40
2018-09-17T09:52:18.962Z,51.30
2018-09-17T09:54:47.510Z,51.10
2018-09-17T09:57:16.049Z,51.80
2018-09-17T09:59:44.565Z,51.60
2018-09-17T10:02:18.269Z,51.70
2018-09-17T10:04:46.896Z,53.20
2018-09-17T10:07:15.490Z,51.10
2018-09-17T10:09:49.424Z,50.90
2018-09-17T10:12:23.227Z,51.50
2018-09-17T10:14:56.914Z,51.60
2018-09-17T10:17:30.745Z,51.60
2018-09-17T10:19:59.308Z,48.90
2018-09-17T10:22:27.880Z,51.00
2018-09-17T10:24:56.413Z,50.10
2018-09-17T10:27:24.950Z,50.10
2018-09-17T10:29:53.604Z,51.00
2018-09-17T10:32:22.119Z,48.50
2018-09-17T10:34:50.684Z,46.40
2018-09-17T10:37:19.240Z,45.20
2018-09-17T10:39:47.799Z,44.90
2018-09-17T10:42:16.403Z,45.70
2018-09-17T10:44:44.975Z,45.00
2018-09-17T10:47:13.526Z,44.20
2018-09-17T10:49:42.103Z,43.50
2018-09-17T10:52:10.684Z,45.10
2018-09-17T10:54:39.195Z,43.60
2018-09-17T10:57:07.842Z,45.00
2018-09-17T10:59:36.377Z,44.90
2018-09-17T11:02:04.989Z,43.80
2018-09-17T11:04:33.559Z,41.00
2018-09-17T11:07:02.086Z,42.10
2018-09-17T11:09:30.648Z,40.70
2018-09-17T11:11:59.186Z,42.10
2018-09-17T11:14:27.732Z,41.70
2018-09-17T11:16:56.283Z,41.60
2018-09-17T11:19:24.843Z,40.60
2018-09-17T11:21:53.403Z,40.90
2018-09-17T11:24:21.931Z,43.10
2018-09-17T11:26:50.472Z,40.30
2018-09-17T11:29:19.040Z,38.70
2018-09-17T11:31:47.584Z,40.30
2018-09-17T11:34:16.134Z,39.90
2018-09-17T11:36:44.926Z,39.60
2018-09-17T11:39:13.457Z,42.50
2018-09-17T11:41:42.062Z,41.40
2018-09-17T11:44:10.586Z,40.40
2018-09-17T11:46:39.096Z,42.30
2018-09-17T11:49:07.620Z,41.80
2018-09-17T11:51:36.145Z,40.20
2018-09-17T11:54:04.777Z,40.60
2018-09-17T11:56:33.332Z,42.30
2018-09-17T11:59:01.937Z,40.60
2018-09-17T12:01:35.769Z,40.10
2018-09-17T12:04:09.584Z,40.20
2018-09-17T12:06:43.483Z,38.60
2018-09-17T12:09:12.260Z,40.20
2018-09-17T12:11:41.320Z,39.60
2018-09-17T12:14:10.034Z,39.50
2018-09-17T12:16:38.571Z,39.40
2018-09-17T12:19:07.112Z,40.70
2018-09-17T12:21:36.615Z,40.40
2018-09-17T12:24:05.153Z,40.60
2018-09-17T12:26:33.771Z,40.00
2018-09-17T12:29:02.300Z,40.50
2018-09-17T12:31:30.860Z,39.60
2018-09-17T12:33:59.445Z,40.30
2018-09-17T12:36:27.969Z,40.50
2018-09-17T12:38:56.502Z,40.70
2018-09-17T12:41:25.069Z,40.00
2018-09-17T12:43:55.317Z,37.50
2018-09-17T12:46:23.865Z,37.40
2018-09-17T12:48:52.382Z,39.20
2018-09-17T12:51:20.899Z,39.70
2018-09-17T12:53:49.547Z,39.20
2018-09-17T12:56:18.180Z,39.00
2018-09-17T12:58:46.816Z,39.20
2018-09-17T13:01:15.398Z,36.50
2018-09-17T13:03:45.333Z,37.10
2018-09-17T13:06:15.612Z,40.50
2018-09-17T13:08:45.194Z,38.50
2018-09-17T13:11:13.714Z,37.30
2018-09-17T13:13:42.239Z,36.90
2018-09-17T13:16:13.485Z,38.70
2018-09-17T13:18:44.038Z,36.90
2018-09-17T13:21:12.897Z,40.10
2018-09-17T13:23:41.452Z,37.30
2018-09-17T13:26:10.263Z,37.60
2018-09-17T13:28:38.941Z,37.30
2018-09-17T13:31:07.626Z,38.00
2018-09-17T13:33:36.197Z,36.60
2018-09-17T13:36:04.753Z,36.40
2018-09-17T13:38:33.332Z,36.50
2018-09-17T13:41:01.870Z,37.30
2018-09-17T13:43:30.482Z,37.40
2018-09-17T13:45:59.215Z,37.70
2018-09-17T13:48:27.751Z,39.90
2018-09-17T13:50:56.359Z,39.40
2018-09-17T13:53:24.982Z,36.50
2018-09-17T13:55:53.503Z,37.90
2018-09-17T13:58:22.160Z,39.00
2018-09-17T14:00:50.758Z,38.20
2018-09-17T14:03:19.382Z,38.10
2018-09-17T14:05:47.935Z,38.40
2018-09-17T14:08:16.481Z,37.00
2018-09-17T14:10:45.123Z,36.10
2018-09-17T14:13:13.941Z,37.80
2018-09-17T14:15:46.760Z,37.60
2018-09-17T14:18:15.386Z,37.80
2018-09-17T14:20:44.281Z,39.30
2018-09-17T14:23:12.830Z,37.10
2018-09-17T14:25:41.351Z,38.70
2018-09-17T14:28:09.881Z,38.80
2018-09-17T14:30:38.469Z,39.10
2018-09-17T14:33:12.543Z,39.90
2018-09-17T14:35:41.266Z,39.20
2018-09-17T14:38:09.715Z,38.60
2018-09-17T14:40:38.237Z,39.60
2018-09-17T14:43:06.852Z,39.90
2018-09-17T14:45:35.383Z,39.40
2018-09-17T14:48:04.062Z,37.10
2018-09-17T14:50:32.585Z,38.30
2018-09-17T14:53:01.168Z,37.20
2018-09-17T14:55:29.691Z,37.60
2018-09-17T14:57:58.283Z,38.20
2018-09-17T15:00:27.814Z,37.60
2018-09-17T15:02:56.345Z,38.30
2018-09-17T15:05:24.919Z,39.90
2018-09-17T15:07:53.534Z,38.80
2018-09-17T15:10:22.191Z,38.50
2018-09-17T15:12:50.690Z,39.50
2018-09-17T15:15:19.291Z,38.00
2018-09-17T15:17:47.792Z,38.80
2018-09-17T15:20:16.722Z,38.60
2018-09-17T15:22:45.230Z,40.00
2018-09-17T15:25:13.775Z,38.10
2018-09-17T15:27:42.390Z,39.50
2018-09-17T15:30:11.007Z,42.20
2018-09-17T15:32:39.665Z,43.00
2018-09-17T15:35:08.229Z,44.40
2018-09-17T15:37:36.858Z,40.90
2018-09-17T15:40:05.947Z,42.30
2018-09-17T15:42:34.707Z,43.80
2018-09-17T15:45:03.383Z,46.30
2018-09-17T15:47:31.910Z,46.20
2018-09-17T15:50:00.630Z,46.20
2018-09-17T15:52:29.074Z,46.70
2018-09-17T15:54:57.720Z,47.10
2018-09-17T15:57:26.402Z,47.10
2018-09-17T15:59:54.941Z,48.10
2018-09-17T16:02:23.467Z,45.70
2018-09-17T16:04:52.024Z,44.80
2018-09-17T16:07:20.582Z,44.80
2018-09-17T16:09:49.172Z,46.20
2018-09-17T16:12:17.695Z,44.90
2018-09-17T16:14:46.347Z,46.90
2018-09-17T16:17:14.937Z,47.40
2018-09-17T16:19:43.493Z,49.40
2018-09-17T16:22:12.131Z,47.00
2018-09-17T16:24:40.669Z,45.70
2018-09-17T16:27:09.214Z,49.40
2018-09-17T16:29:37.824Z,49.60
2018-09-17T16:32:06.435Z,50.80
2018-09-17T16:34:34.987Z,49.30
2018-09-17T16:37:03.546Z,50.80
2018-09-17T16:39:32.079Z,49.50
2018-09-17T16:42:00.699Z,51.10
2018-09-17T16:44:29.231Z,52.00
2018-09-17T16:46:57.867Z,52.80
2018-09-17T16:49:26.408Z,52.80
2018-09-17T16:51:56.543Z,52.30
2018-09-17T16:54:26.597Z,53.40
2018-09-17T16:56:55.134Z,53.70
2018-09-17T16:59:23.804Z,54.40
2018-09-17T17:01:53.215Z,54.20
2018-09-17T17:04:21.742Z,53.60
2018-09-17T17:06:50.316Z,54.50
2018-09-17T17:09:18.862Z,55.00
2018-09-17T17:11:47.397Z,54.90
2018-09-17T17:14:15.956Z,55.20
2018-09-17T17:16:44.506Z,55.00
2018-09-17T17:19:13.097Z,55.70
2018-09-17T17:21:41.619Z,55.50
2018-09-17T17:24:10.182Z,56.10
2018-09-17T17:26:38.722Z,56.30
2018-09-17T17:29:07.334Z,57.00
2018-09-17T17:31:35.882Z,58.00
2018-09-17T17:34:04.597Z,58.20
2018-09-17T17:36:33.120Z,59.40
2018-09-17T17:39:01.727Z,60.40
2018-09-17T17:41:30.310Z,60.30
2018-09-17T17:43:58.956Z,61.20
2018-09-17T17:46:27.643Z,61.40
2018-09-17T17:48:56.166Z,62.20
2018-09-17T17:51:24.808Z,62.70
2018-09-17T17:53:53.355Z,63.20
2018-09-17T17:56:22.002Z,63.50
2018-09-17T17:58:50.729Z,63.90
2018-09-17T18:01:19.350Z,64.40
2018-09-17T18:03:47.991Z,64.80
2018-09-17T18:06:16.554Z,65.30
2018-09-17T18:08:45.095Z,65.60
2018-09-17T18:11:13.693Z,66.10
2018-09-17T18:13:42.227Z,66.60
2018-09-17T18:16:10.791Z,66.80
2018-09-17T18:18:39.466Z,67.50
2018-09-17T18:21:08.229Z,67.80
2018-09-17T18:23:37.031Z,68.30
2018-09-17T18:26:05.640Z,68.90
2018-09-17T18:28:34.242Z,69.30
2018-09-17T18:31:02.785Z,69.90
2018-09-17T18:33:31.332Z,70.30
2018-09-17T18:35:59.882Z,70.90
2018-09-17T18:38:28.457Z,71.40
2018-09-17T18:40:57.009Z,71.90
2018-09-17T18:43:25.586Z,72.30
2018-09-17T18:45:54.232Z,72.60
2018-09-17T18:48:22.908Z,73.10
2018-09-17T18:50:51.435Z,73.50
2018-09-17T18:53:20.021Z,73.70
2018-09-17T18:55:48.552Z,74.00
2018-09-17T18:58:17.112Z,74.20
2018-09-17T19:00:45.636Z,74.50
2018-09-17T19:03:14.272Z,74.70
2018-09-17T19:05:42.811Z,74.90
2018-09-17T19:08:11.392Z,75.00
2018-09-17T19:10:39.934Z,74.40
2018-09-17T19:13:08.447Z,74.80
2018-09-17T19:15:42.261Z,75.20
2018-09-17T19:18:17.417Z,75.50
2018-09-17T19:20:47.035Z,75.50
2018-09-17T19:23:20.694Z,75.50
2018-09-17T19:25:49.284Z,75.40
2018-09-17T19:28:23.086Z,75.50
2018-09-17T19:30:51.694Z,75.70
2018-09-17T19:33:20.251Z,75.90
2018-09-17T19:35:48.913Z,76.20
2018-09-17T19:38:22.670Z,76.30
2018-09-17T19:40:51.251Z,76.50
2018-09-17T19:43:19.857Z,76.40
2018-09-17T19:45:53.654Z,76.80
2018-09-17T19:48:22.240Z,76.50
2018-09-17T19:50:55.975Z,76.60
2018-09-17T19:53:24.560Z,76.10
2018-09-17T19:55:53.194Z,76.20
2018-09-17T19:58:26.981Z,76.70
2018-09-17T20:00:55.645Z,77.00
2018-09-17T20:03:24.133Z,77.10
2018-09-17T20:05:57.931Z,77.40
2018-09-17T20:08:26.518Z,77.20
2018-09-17T20:10:55.078Z,77.30
2018-09-17T20:13:23.932Z,77.20
2018-09-17T20:15:52.484Z,77.30
2018-09-17T20:18:21.044Z,77.50
2018-09-17T20:20:49.562Z,77.30
2018-09-17T20:23:18.156Z,76.20
2018-09-17T20:25:46.706Z,75.80
2018-09-17T20:28:15.236Z,76.00
2018-09-17T20:30:43.808Z,76.20
2018-09-17T20:33:12.404Z,76.70
2018-09-17T20:35:41.013Z,76.90
2018-09-17T20:38:09.551Z,77.40
2018-09-17T20:40:38.110Z,78.20
2018-09-17T20:43:06.713Z,78.40
2018-09-17T20:45:35.219Z,78.80
2018-09-17T20:48:03.786Z,79.30
2018-09-17T20:50:32.338Z,79.70
2018-09-17T20:53:04.103Z,80.00
2018-09-17T20:55:32.668Z,80.30
2018-09-17T20:58:01.269Z,80.50
2018-09-17T21:00:29.828Z,80.50
2018-09-17T21:02:58.414Z,80.70
2018-09-17T21:05:26.987Z,80.70
2018-09-17T21:07:55.521Z,80.80
2018-09-17T21:10:24.079Z,81.10
2018-09-17T21:12:52.608Z,81.00
2018-09-17T21:15:21.128Z,81.00
2018-09-17T21:17:49.793Z,81.40
2018-09-17T21:20:18.375Z,81.50
2018-09-17T21:22:46.911Z,81.60
2018-09-17T21:25:15.484Z,81.60
2018-09-17T21:27:44.057Z,81.90
2018-09-17T21:30:12.615Z,82.30
2018-09-17T21:32:41.187Z,82.40
2018-09-17T21:35:09.776Z,82.50
2018-09-17T21:37:38.315Z,82.70
2018-09-17T21:40:06.908Z,82.50
2018-09-17T21:42:35.543Z,82.30
2018-09-17T21:45:05.246Z,82.40
2018-09-17T21:47:33.799Z,82.60
2018-09-17T21:50:02.313Z,82.70
2018-09-17T21:52:30.921Z,82.80
2018-09-17T21:54:59.463Z,83.20
2018-09-17T21:57:28.118Z,83.20
2018-09-17T21:59:56.650Z,83.20
2018-09-17T22:02:25.335Z,83.60
2018-09-17T22:04:54.126Z,84.00
2018-09-17T22:07:23.845Z,84.30
2018-09-17T22:09:52.823Z,84.30
2018-09-17T22:12:21.388Z,84.30
2018-09-17T22:14:49.927Z,84.50
2018-09-17T22:17:18.461Z,84.50
2018-09-17T22:19:47.050Z,84.90
2018-09-17T22:22:15.583Z,85.00
2018-09-17T22:24:44.176Z,85.10
2018-09-17T22:27:12.684Z,85.10
2018-09-17T22:29:41.237Z,85.00
2018-09-17T22:32:11.784Z,84.90
2018-09-17T22:34:41.758Z,85.10
2018-09-17T22:37:10.380Z,85.20
2018-09-17T22:39:38.919Z,85.80
2018-09-17T22:42:07.518Z,86.20
2018-09-17T22:44:36.072Z,86.40
2018-09-17T22:47:04.765Z,86.60
2018-09-17T22:49:33.292Z,86.70
2018-09-17T22:52:01.878Z,86.50
2018-09-17T22:54:30.405Z,86.60
2018-09-17T22:56:58.950Z,86.60
2018-09-17T22:59:27.510Z,86.70
2018-09-17T23:01:56.106Z,87.10
2018-09-17T23:04:24.601Z,87.20
2018-09-17T23:06:53.110Z,87.00
2018-09-17T23:09:21.659Z,86.00
2018-09-17T23:11:50.213Z,85.20
2018-09-17T23:14:18.740Z,85.30
2018-09-17T23:16:47.297Z,85.70
2018-09-17T23:19:15.840Z,86.10
2018-09-17T23:21:44.356Z,86.40
2018-09-17T23:24:12.940Z,86.60
2018-09-17T23:26:41.458Z,87.00
2018-09-17T23:29:09.988Z,87.10
2018-09-17T23:31:38.524Z,86.90
2018-09-17T23:34:07.082Z,86.60
2018-09-17T23:36:35.616Z,86.90
2018-09-17T23:39:05.902Z,87.10
2018-09-17T23:41:34.449Z,87.30
2018-09-17T23:44:03.104Z,87.50
2018-09-17T23:46:31.693Z,87.60
2018-09-17T23:49:00.212Z,87.80
2018-09-17T23:51:28.832Z,88.00
2018-09-17T23:53:57.390Z,88.20
2018-09-17T23:56:25.934Z,88.30
2018-09-17T23:58:54.466Z,88.50
